Time;durP1;ratioP1;P1;durP2;ratioP2;P2;SDS_P1;SDS_P2;PMS_P1;PMS_P2;Temp;Humidity;BMP_temperature;BMP_pressure;BME280_temperature;BME280_humidity;BME280_pressure;Samples;Min_cycle;Max_cycle;Signal;HPM_P1;HPM_P2
2021/09/18 00:02:12;;;;;;;10.38;5.50;;;;;;;6.58;88.40;90745.56;4997931;28;20470;-87
2021/09/18 00:04:38;;;;;;;7.85;5.10;;;;;;;6.50;87.78;90754.09;4998224;28;20029;-87
2021/09/18 00:07:03;;;;;;;6.90;4.90;;;;;;;6.45;86.97;90754.25;4997924;28;20025;-88
2021/09/18 00:09:29;;;;;;;6.30;4.85;;;;;;;6.35;86.82;90746.81;4981871;28;20037;-87
2021/09/18 00:11:54;;;;;;;6.43;5.00;;;;;;;6.45;86.73;90754.25;4998189;28;20421;-87
2021/09/18 00:14:20;;;;;;;7.80;4.63;;;;;;;6.35;87.34;90744.97;4982546;28;20032;-87
2021/09/18 00:16:46;;;;;;;8.13;5.25;;;;;;;6.35;88.10;90747.56;4981494;28;20627;-88
2021/09/18 00:19:11;;;;;;;7.38;4.78;;;;;;;6.35;88.65;90746.81;4981482;28;20029;-87
2021/09/18 00:21:37;;;;;;;7.68;5.15;;;;;;;6.31;88.62;90748.50;4981665;28;20476;-87
2021/09/18 00:24:03;;;;;;;9.35;5.25;;;;;;;6.28;89.08;90749.84;4981766;28;20029;-88
2021/09/18 00:26:28;;;;;;;7.45;5.40;;;;;;;6.30;89.31;90749.56;4978150;28;20026;-88
2021/09/18 00:28:53;;;;;;;7.72;4.85;;;;;;;6.32;88.62;90750.00;4992729;28;20029;-87
2021/09/18 00:31:19;;;;;;;11.15;5.30;;;;;;;6.32;89.03;90748.16;5001092;28;20029;-87
2021/09/18 00:33:44;;;;;;;12.57;5.38;;;;;;;6.28;89.31;90749.09;5000793;28;20017;-87
2021/09/18 00:36:10;;;;;;;6.70;5.18;;;;;;;6.21;89.22;90749.53;5000987;28;20428;-88
2021/09/18 00:38:35;;;;;;;6.72;4.53;;;;;;;6.48;87.60;90751.06;5014222;28;20029;-88
2021/09/18 00:41:00;;;;;;;6.32;4.68;;;;;;;6.30;87.52;90739.22;5014167;28;20051;-88
2021/09/18 00:43:26;;;;;;;6.47;4.85;;;;;;;6.18;87.10;90743.16;4992726;28;20025;-88
2021/09/18 00:45:51;;;;;;;6.95;4.75;;;;;;;6.14;88.64;90741.47;4992702;28;20038;-87
2021/09/18 00:48:16;;;;;;;7.78;4.80;;;;;;;6.05;87.65;90744.06;4994120;28;20022;-87
2021/09/18 00:50:42;;;;;;;7.10;4.90;;;;;;;6.15;87.81;90743.03;4977966;28;20084;-88
2021/09/18 00:53:08;;;;;;;8.80;5.63;;;;;;;6.10;88.22;90748.34;4994201;28;20509;-87
2021/09/18 00:55:33;;;;;;;9.93;5.40;;;;;;;6.01;88.57;90743.16;4994189;28;20022;-87
2021/09/18 00:57:59;;;;;;;7.45;5.60;;;;;;;6.04;88.86;90739.94;4994261;28;20033;-87
2021/09/18 01:00:24;;;;;;;8.13;5.78;;;;;;;6.02;89.37;90739.50;4993864;28;20025;-88
2021/09/18 01:02:50;;;;;;;10.05;5.85;;;;;;;6.01;89.45;90737.22;4994146;28;20425;-87
2021/09/18 01:05:15;;;;;;;8.40;5.28;;;;;;;5.98;89.37;90741.19;4994136;28;20076;-87
2021/09/18 01:07:40;;;;;;;10.07;5.25;;;;;;;6.02;89.33;90738.75;4980840;28;20036;-87
2021/09/18 01:10:07;;;;;;;8.00;5.25;;;;;;;6.05;89.84;90738.91;4998865;28;20127;-87
2021/09/18 01:12:33;;;;;;;8.65;5.82;;;;;;;6.09;89.76;90734.63;4989451;28;20035;-87
2021/09/18 01:14:58;;;;;;;13.55;6.95;;;;;;;6.10;89.50;90730.97;5004714;28;20025;-87
2021/09/18 01:17:23;;;;;;;7.70;5.38;;;;;;;6.06;89.65;90732.66;5020856;28;20024;-87
2021/09/18 01:19:49;;;;;;;10.25;5.78;;;;;;;6.13;89.55;90735.56;5004483;28;20028;-87
2021/09/18 01:22:18;;;;;;;8.82;5.60;;;;;;;6.07;89.90;90729.00;5004800;28;20431;-87
2021/09/18 01:24:43;;;;;;;7.40;5.25;;;;;;;6.06;89.36;90727.47;5008338;28;20033;-87
2021/09/18 01:27:08;;;;;;;8.65;5.18;;;;;;;5.99;89.70;90715.00;4988105;28;20022;-87
2021/09/18 01:29:34;;;;;;;10.82;5.65;;;;;;;6.02;89.66;90728.41;4964962;28;20109;-87
2021/09/18 01:31:59;;;;;;;9.98;5.47;;;;;;;5.96;89.99;90717.44;4997586;28;20036;-87
2021/09/18 01:34:25;;;;;;;11.05;5.93;;;;;;;6.03;89.88;90720.31;4969353;28;20532;-87
2021/09/18 01:36:51;;;;;;;10.07;6.30;;;;;;;6.09;89.51;90726.13;4984231;28;20037;-87
2021/09/18 01:39:17;;;;;;;8.38;5.80;;;;;;;6.04;89.80;90727.00;4994641;28;20400;-87
2021/09/18 01:41:43;;;;;;;9.35;6.18;;;;;;;5.95;90.72;90723.69;4997080;28;20493;-87
2021/09/18 01:44:09;;;;;;;10.43;6.00;;;;;;;5.91;90.81;90722.75;4984427;28;20018;-87
2021/09/18 01:46:35;;;;;;;13.45;6.72;;;;;;;5.89;90.48;90719.69;5000701;28;20363;-87
2021/09/18 01:49:00;;;;;;;10.40;6.70;;;;;;;5.95;89.83;90718.50;5000291;28;20532;-88
2021/09/18 01:51:29;;;;;;;10.35;6.32;;;;;;;5.95;89.94;90726.25;5000566;28;20088;-88
2021/09/18 01:53:54;;;;;;;9.07;5.70;;;;;;;5.93;90.01;90725.78;5000697;28;20028;-87
2021/09/18 01:56:20;;;;;;;9.77;5.95;;;;;;;5.95;88.99;90721.09;5000409;28;20022;-87
2021/09/18 01:58:45;;;;;;;9.63;6.13;;;;;;;5.87;89.80;90720.00;5016052;28;20044;-87
2021/09/18 02:01:11;;;;;;;9.25;5.80;;;;;;;5.91;89.23;90722.75;5016744;28;20021;-87
2021/09/18 02:03:36;;;;;;;10.15;6.88;;;;;;;5.88;89.65;90724.09;5000430;28;20025;-87
2021/09/18 02:06:02;;;;;;;9.90;6.38;;;;;;;5.99;89.59;90724.59;4984266;28;20071;-87
2021/09/18 02:08:27;;;;;;;16.08;6.63;;;;;;;5.90;89.93;90727.16;4983767;28;20029;-87
2021/09/18 02:10:53;;;;;;;21.27;6.95;;;;;;;5.80;90.50;90716.34;5000055;28;20044;-87
2021/09/18 02:13:19;;;;;;;24.85;6.43;;;;;;;5.70;90.72;90718.16;4983837;28;20033;-87
2021/09/18 02:15:44;;;;;;;21.85;6.05;;;;;;;5.67;90.59;90712.81;5000248;28;20095;-87
2021/09/18 02:18:10;;;;;;;12.10;5.57;;;;;;;5.58;90.89;90719.78;4983375;28;20021;-87
2021/09/18 02:20:35;;;;;;;11.25;5.85;;;;;;;5.48;91.24;90713.09;4983688;28;20021;-87
2021/09/18 02:23:01;;;;;;;15.52;5.70;;;;;;;5.50;90.65;90705.78;4983174;28;20021;-87
2021/09/18 02:25:27;;;;;;;7.68;5.28;;;;;;;5.52;90.28;90716.59;4983636;28;20021;-87
2021/09/18 02:27:52;;;;;;;6.78;4.80;;;;;;;5.57;90.34;90713.88;4996061;28;20030;-87
2021/09/18 02:30:20;;;;;;;9.70;5.57;;;;;;;5.59;90.51;90708.41;5022225;23;20037;-90
2021/09/18 02:32:45;;;;;;;7.72;5.13;;;;;;;5.54;89.59;90709.28;4963457;28;20029;-89
2021/09/18 02:35:12;;;;;;;8.90;5.80;;;;;;;5.68;90.09;90715.09;4962539;28;20022;-90
2021/09/18 02:37:38;;;;;;;9.07;5.60;;;;;;;5.62;89.85;90705.97;4978860;28;20068;-89
2021/09/18 02:40:04;;;;;;;6.93;4.85;;;;;;;5.67;88.33;90702.47;5003119;28;20054;-88
2021/09/18 02:42:29;;;;;;;7.95;5.32;;;;;;;5.61;88.91;90704.44;4960445;28;20026;-89
2021/09/18 02:44:54;;;;;;;8.38;5.40;;;;;;;5.55;89.14;90704.88;4944408;28;20037;-89
2021/09/18 02:47:20;;;;;;;9.48;6.10;;;;;;;5.61;89.46;90693.34;4976307;28;20026;-88
2021/09/18 02:49:45;;;;;;;8.38;5.75;;;;;;;5.58;89.82;90702.44;4944206;28;20023;-89
2021/09/18 02:52:11;;;;;;;11.90;6.03;;;;;;;5.52;89.56;90701.09;4960216;28;20030;-89
2021/09/18 02:54:36;;;;;;;8.95;5.72;;;;;;;5.44;89.72;90697.44;4960238;28;20494;-89
2021/09/18 02:57:02;;;;;;;7.57;4.90;;;;;;;5.47;90.41;90703.81;4976167;28;20061;-89
2021/09/18 02:59:28;;;;;;;8.82;5.18;;;;;;;5.47;89.71;90698.63;4960200;28;20022;-90
2021/09/18 03:01:53;;;;;;;11.25;5.40;;;;;;;5.52;89.45;90693.34;4960055;28;20061;-90
2021/09/18 03:04:18;;;;;;;7.30;5.07;;;;;;;5.43;89.55;90697.72;4959940;28;20030;-89
2021/09/18 03:06:44;;;;;;;6.88;4.95;;;;;;;5.33;89.72;90698.75;4975968;28;20033;-88
2021/09/18 03:09:09;;;;;;;8.75;4.90;;;;;;;5.21;89.85;90689.00;4975880;28;20085;-89
2021/09/18 03:11:35;;;;;;;6.85;4.60;;;;;;;5.21;89.30;90696.75;4975951;28;20022;-89
2021/09/18 03:14:00;;;;;;;7.20;4.90;;;;;;;5.32;88.42;90696.47;4959777;28;20026;-89
2021/09/18 03:16:26;;;;;;;7.90;5.05;;;;;;;5.36;88.67;90692.22;4943789;28;20022;-89
2021/09/18 03:18:51;;;;;;;9.70;5.10;;;;;;;5.35;90.27;90694.06;4959391;28;20034;-89
2021/09/18 03:21:16;;;;;;;12.60;5.15;;;;;;;5.35;90.19;90685.56;4959803;28;20045;-89
2021/09/18 03:23:42;;;;;;;13.25;5.72;;;;;;;5.28;90.18;90686.75;4975842;28;20026;-89
2021/09/18 03:26:07;;;;;;;16.10;5.90;;;;;;;5.30;91.29;90688.25;4975035;28;20033;-89
2021/09/18 03:28:33;;;;;;;8.55;5.50;;;;;;;5.18;91.72;90692.19;4959657;28;20085;-91
2021/09/18 03:30:59;;;;;;;10.40;4.85;;;;;;;5.27;91.43;90684.47;4943417;28;20073;-89
2021/09/18 03:33:24;;;;;;;19.92;5.30;;;;;;;5.31;90.68;90684.63;4991660;28;20030;-89
2021/09/18 03:35:51;;;;;;;27.23;5.75;;;;;;;5.31;90.43;90682.81;4975428;28;20101;-89
2021/09/18 03:38:17;;;;;;;14.88;5.88;;;;;;;5.20;91.52;90679.00;4975451;28;20129;-89
2021/09/18 03:40:42;;;;;;;21.67;5.68;;;;;;;5.16;91.87;90684.00;4959196;28;20175;-89
2021/09/18 03:43:08;;;;;;;41.50;6.25;;;;;;;5.09;92.22;90675.91;4943453;28;20387;-90
2021/09/18 03:45:33;;;;;;;9.13;5.80;;;;;;;5.08;92.29;90676.19;4959321;28;20030;-89
2021/09/18 03:47:59;;;;;;;7.82;5.38;;;;;;;5.07;91.88;90672.88;4992441;28;20474;-89
2021/09/18 03:50:24;;;;;;;11.20;5.15;;;;;;;5.12;91.72;90682.28;4955797;28;20468;-88
2021/09/18 03:52:49;;;;;;;8.18;5.28;;;;;;;5.09;91.94;90675.91;4972331;28;20031;-87
2021/09/18 03:55:15;;;;;;;10.82;5.10;;;;;;;5.13;91.66;90679.41;4992439;28;20029;-89
2021/09/18 03:57:40;;;;;;;15.18;5.55;;;;;;;5.07;91.29;90670.28;4974717;28;20030;-89
2021/09/18 04:00:06;;;;;;;14.68;5.40;;;;;;;5.06;91.58;90668.75;4958756;28;20033;-89
2021/09/18 04:02:32;;;;;;;16.00;5.43;;;;;;;5.12;91.49;90672.72;4959209;28;20037;-89
2021/09/18 04:04:57;;;;;;;8.57;4.80;;;;;;;5.08;91.20;90666.63;4959141;28;20022;-90
2021/09/18 04:07:23;;;;;;;6.78;4.85;;;;;;;5.02;90.82;90667.84;4942791;28;20022;-87
2021/09/18 04:09:48;;;;;;;7.97;4.97;;;;;;;5.01;90.69;90667.06;4958481;28;20026;-89
2021/09/18 04:12:14;;;;;;;8.45;5.20;;;;;;;5.07;91.38;90669.53;4958582;28;20026;-89
2021/09/18 04:14:39;;;;;;;8.48;5.28;;;;;;;5.02;91.35;90668.59;4958810;28;20057;-89
2021/09/18 04:17:05;;;;;;;9.80;5.45;;;;;;;5.06;91.75;90673.94;4974569;28;20504;-88
2021/09/18 04:19:30;;;;;;;12.00;5.22;;;;;;;5.18;90.82;90670.75;4958669;28;20450;-89
2021/09/18 04:21:56;;;;;;;7.93;5.32;;;;;;;5.13;90.21;90669.09;4991756;28;20402;-89
2021/09/18 04:24:21;;;;;;;8.13;4.68;;;;;;;5.07;90.03;90674.69;4974636;28;20072;-90
2021/09/18 04:26:47;;;;;;;8.63;4.68;;;;;;;5.06;88.64;90678.34;4959033;28;20041;-89
2021/09/18 04:29:12;;;;;;;7.70;4.75;;;;;;;5.13;88.51;90683.84;4958447;28;20026;-89
2021/09/18 04:31:37;;;;;;;5.38;3.65;;;;;;;5.12;87.79;90683.03;4974784;28;20033;-89
2021/09/18 04:34:03;;;;;;;6.20;4.20;;;;;;;5.01;88.58;90686.97;4942425;28;20053;-89
2021/09/18 04:36:28;;;;;;;10.10;4.65;;;;;;;5.04;89.51;90678.63;4958498;28;20030;-89
2021/09/18 04:38:54;;;;;;;12.30;5.28;;;;;;;4.93;89.91;90679.97;4957721;28;20030;-89
2021/09/18 04:41:20;;;;;;;10.25;4.68;;;;;;;4.88;91.12;90688.59;4958281;28;20038;-89
2021/09/18 04:43:46;;;;;;;7.90;5.25;;;;;;;4.77;90.85;90682.94;4974676;28;20421;-89
2021/09/18 04:46:11;;;;;;;8.02;4.85;;;;;;;4.76;90.03;90685.81;4974200;28;20109;-89
2021/09/18 04:48:36;;;;;;;7.53;4.70;;;;;;;4.77;89.75;90695.06;4974242;28;20483;-88
2021/09/18 04:51:02;;;;;;;7.93;4.95;;;;;;;4.73;89.80;90692.31;4971219;28;20398;-89
2021/09/18 04:53:27;;;;;;;6.57;4.43;;;;;;;4.78;89.62;90679.31;4939191;28;20026;-89
2021/09/18 04:55:53;;;;;;;7.53;5.05;;;;;;;4.78;90.72;90676.72;4969130;28;20076;-89
2021/09/18 04:58:18;;;;;;;7.28;4.97;;;;;;;4.97;90.97;90693.78;4974281;28;20035;-89
2021/09/18 05:00:44;;;;;;;9.95;5.20;;;;;;;4.96;91.07;90693.03;4991607;28;20026;-89
2021/09/18 05:03:09;;;;;;;7.65;5.18;;;;;;;4.96;91.13;90682.72;4974436;28;20033;-89
2021/09/18 05:05:35;;;;;;;8.05;4.82;;;;;;;5.00;91.08;90690.63;4974337;28;20026;-91
2021/09/18 05:08:00;;;;;;;12.20;4.30;;;;;;;5.05;91.35;90693.06;4974188;28;20034;-89
2021/09/18 05:10:26;;;;;;;17.77;5.25;;;;;;;4.93;91.88;90690.28;4957839;28;20686;-89
2021/09/18 05:12:51;;;;;;;9.32;4.60;;;;;;;4.97;91.39;90697.13;4974243;28;20027;-89
2021/09/18 05:15:17;;;;;;;7.18;4.57;;;;;;;4.99;90.35;90694.28;4974366;28;20394;-91
2021/09/18 05:17:43;;;;;;;6.97;4.65;;;;;;;5.09;90.21;90696.59;4991396;28;20427;-91
2021/09/18 05:20:09;;;;;;;11.68;5.05;;;;;;;4.96;90.51;90690.44;4958135;28;20022;-91
2021/09/18 05:22:35;;;;;;;8.43;4.70;;;;;;;4.95;91.43;90694.09;4940844;28;20556;-91
2021/09/18 05:25:00;;;;;;;8.50;5.47;;;;;;;4.91;92.08;90694.97;4957572;28;20085;-91
2021/09/18 05:27:26;;;;;;;9.93;5.35;;;;;;;4.99;91.61;90707.19;4973347;28;20026;-90
2021/09/18 05:29:51;;;;;;;7.78;4.70;;;;;;;4.98;91.65;90698.69;4957684;28;20034;-91
2021/09/18 05:32:17;;;;;;;6.25;4.60;;;;;;;5.12;90.92;90695.22;4957966;28;20027;-91
2021/09/18 05:34:42;;;;;;;6.65;4.75;;;;;;;5.08;90.77;90699.44;4991237;28;20418;-90
2021/09/18 05:37:08;;;;;;;7.60;4.20;;;;;;;5.09;90.87;90704.34;4957634;28;20022;-90
2021/09/18 05:39:33;;;;;;;8.63;4.78;;;;;;;5.08;90.92;90702.78;4973791;28;20554;-89
2021/09/18 05:41:59;;;;;;;8.10;5.25;;;;;;;5.12;91.40;90706.28;4957992;28;20383;-90
2021/09/18 05:44:24;;;;;;;8.98;4.57;;;;;;;5.24;90.77;90708.31;4957924;28;20026;-90
2021/09/18 05:46:50;;;;;;;9.63;4.95;;;;;;;5.22;91.11;90710.44;4957661;28;20537;-90
2021/09/18 05:49:15;;;;;;;8.45;4.80;;;;;;;5.36;90.90;90712.91;4973909;28;20052;-90
2021/09/18 05:51:41;;;;;;;6.40;4.45;;;;;;;5.61;89.71;90714.78;4973838;28;20407;-90
2021/09/18 05:54:06;;;;;;;8.25;4.90;;;;;;;5.52;90.25;90711.44;4973695;28;20402;-90
2021/09/18 05:56:31;;;;;;;7.15;4.43;;;;;;;5.39;91.23;90710.47;4974303;28;20417;-90
2021/09/18 05:58:57;;;;;;;6.95;4.63;;;;;;;5.56;90.69;90722.69;4976896;28;20026;-90
2021/09/18 06:01:22;;;;;;;6.20;4.55;;;;;;;5.50;90.67;90709.13;4977276;28;20089;-90
2021/09/18 06:03:48;;;;;;;7.75;5.00;;;;;;;5.54;90.87;90727.38;4960994;28;20029;-90
2021/09/18 06:06:13;;;;;;;6.05;4.55;;;;;;;5.63;90.63;90723.00;4960875;28;20037;-90
2021/09/18 06:08:39;;;;;;;7.30;4.57;;;;;;;5.56;90.44;90727.09;4960682;28;20407;-90
2021/09/18 06:11:04;;;;;;;7.20;4.63;;;;;;;5.53;90.11;90733.63;4944923;28;20027;-90
2021/09/18 06:13:30;;;;;;;8.40;5.35;;;;;;;5.59;92.22;90726.50;4977167;28;20033;-90
2021/09/18 06:15:55;;;;;;;10.43;6.07;;;;;;;5.81;92.71;90730.78;4961178;28;20033;-90
2021/09/18 06:18:21;;;;;;;10.77;5.05;;;;;;;5.82;92.03;90727.13;4976746;28;20041;-90
2021/09/18 06:20:46;;;;;;;7.50;5.07;;;;;;;5.69;91.06;90732.16;4994161;28;20106;-90
2021/09/18 06:23:12;;;;;;;7.93;5.13;;;;;;;5.67;90.26;90739.44;4977224;28;20029;-91
2021/09/18 06:25:37;;;;;;;8.07;4.93;;;;;;;5.86;90.40;90740.97;4976428;28;20026;-90
2021/09/18 06:28:03;;;;;;;8.75;4.88;;;;;;;5.88;91.37;90739.63;4960372;28;20034;-90
2021/09/18 06:30:28;;;;;;;7.75;4.40;;;;;;;6.08;91.41;90745.28;4960518;28;20062;-91
2021/09/18 06:32:54;;;;;;;7.25;4.78;;;;;;;6.12;91.01;90743.63;4960558;28;20091;-90
2021/09/18 06:35:19;;;;;;;7.82;4.68;;;;;;;6.31;90.75;90745.91;4960663;28;20027;-90
2021/09/18 06:37:46;;;;;;;8.05;5.13;;;;;;;6.32;91.50;90755.19;4976101;28;20459;-90
2021/09/18 06:40:12;;;;;;;7.95;5.15;;;;;;;6.46;91.48;90743.59;4960586;28;20093;-90
2021/09/18 06:42:38;;;;;;;9.25;5.20;;;;;;;6.43;91.92;90743.44;4960648;28;20033;-91
2021/09/18 06:45:04;;;;;;;6.55;4.40;;;;;;;6.62;92.00;90746.47;4976462;28;20418;-89
2021/09/18 06:47:29;;;;;;;9.32;4.93;;;;;;;6.62;91.61;90745.72;4959958;28;20022;-91
2021/09/18 06:49:55;;;;;;;11.73;4.78;;;;;;;6.61;91.90;90744.97;4956708;28;20026;-90
2021/09/18 06:52:20;;;;;;;8.27;5.40;;;;;;;6.74;91.77;90742.50;4956886;28;20022;-91
2021/09/18 06:54:46;;;;;;;7.75;5.03;;;;;;;6.89;92.75;90742.00;4956939;28;20030;-90
2021/09/18 06:57:12;;;;;;;16.33;9.38;;;;;;;7.25;93.25;90740.84;4925160;28;20438;-90
2021/09/18 06:59:38;;;;;;;11.40;6.85;;;;;;;7.34;92.73;90744.13;4956779;28;20081;-90
2021/09/18 07:02:04;;;;;;;8.50;5.82;;;;;;;7.40;92.00;90742.91;4956918;28;20018;-89
2021/09/18 07:04:30;;;;;;;8.68;6.20;;;;;;;7.50;91.85;90741.78;4941072;28;20027;-90
2021/09/18 07:06:55;;;;;;;11.82;6.70;;;;;;;7.55;92.10;90739.00;4956568;28;20467;-91
2021/09/18 07:09:21;;;;;;;13.23;7.63;;;;;;;7.62;91.92;90741.88;4975266;28;20038;-91
2021/09/18 07:11:46;;;;;;;16.48;9.40;;;;;;;7.81;91.86;90747.41;4961498;28;20445;-91
2021/09/18 07:14:11;;;;;;;16.02;8.23;;;;;;;7.99;93.36;90747.31;4976037;28;20031;-90
2021/09/18 07:16:37;;;;;;;13.02;7.55;;;;;;;8.03;93.76;90746.34;4959772;28;20018;-90
2021/09/18 07:19:02;;;;;;;16.85;9.50;;;;;;;8.26;92.41;90751.22;4960026;28;20030;-92
2021/09/18 07:21:28;;;;;;;17.30;9.60;;;;;;;8.42;91.35;90754.81;4943884;28;20069;-89
2021/09/18 07:23:53;;;;;;;20.40;10.70;;;;;;;8.52;89.15;90754.44;4943628;28;20030;-91
2021/09/18 07:26:19;;;;;;;16.85;10.45;;;;;;;8.61;89.19;90752.50;4942353;28;20029;-91
2021/09/18 07:28:44;;;;;;;19.50;10.88;;;;;;;8.68;87.11;90756.41;4959119;28;20081;-90
2021/09/18 07:31:10;;;;;;;19.17;10.65;;;;;;;8.82;87.01;90759.50;4960009;28;20394;-91
2021/09/18 07:33:36;;;;;;;17.73;10.70;;;;;;;9.11;87.46;90758.59;4943474;28;20022;-88
2021/09/18 07:36:03;;;;;;;17.13;10.57;;;;;;;9.08;85.08;90757.41;4975893;28;20486;-93
2021/09/18 07:38:28;;;;;;;16.73;9.45;;;;;;;9.22;85.01;90758.94;4943681;28;20030;-89
2021/09/18 07:40:56;;;;;;;17.50;10.18;;;;;;;9.34;84.90;90746.72;4975700;28;20030;-92
2021/09/18 07:43:21;;;;;;;18.92;10.07;;;;;;;9.46;85.92;90748.56;4960584;28;20027;-92
2021/09/18 07:45:47;;;;;;;16.55;9.25;;;;;;;9.53;87.13;90748.78;4959725;28;20114;-90
2021/09/18 07:48:12;;;;;;;15.43;8.85;;;;;;;9.63;86.22;90739.03;4975704;28;20561;-91
2021/09/18 07:50:38;;;;;;;15.55;9.27;;;;;;;9.89;84.85;90744.66;4975497;28;20030;-88
2021/09/18 07:53:03;;;;;;;15.20;8.40;;;;;;;9.99;85.16;90753.88;4959212;28;20525;-88
2021/09/18 07:55:29;;;;;;;17.05;9.82;;;;;;;10.09;87.35;90755.28;4959282;28;20038;-88
2021/09/18 07:57:55;;;;;;;17.63;9.32;;;;;;;10.23;84.89;90742.66;4958902;28;20029;-90
2021/09/18 08:00:21;;;;;;;14.10;8.65;;;;;;;10.45;83.46;90755.22;4942768;28;20030;-90
2021/09/18 08:02:46;;;;;;;12.65;8.02;;;;;;;10.41;81.11;90738.72;4955556;28;20125;-90
2021/09/18 08:05:12;;;;;;;13.18;8.38;;;;;;;10.46;83.01;90748.94;4939868;28;20438;-91
2021/09/18 08:07:38;;;;;;;13.25;7.95;;;;;;;10.72;83.28;90758.94;4941668;28;20466;-91
2021/09/18 08:10:07;;;;;;;12.77;7.75;;;;;;;10.85;80.25;90757.03;4959084;28;20390;-91
2021/09/18 08:12:34;;;;;;;13.57;7.32;;;;;;;10.85;79.97;90753.66;4943691;28;20030;-90
2021/09/18 08:15:00;;;;;;;14.63;7.53;;;;;;;10.93;80.42;90756.13;4959244;28;20077;-92
2021/09/18 08:17:25;;;;;;;11.40;6.72;;;;;;;11.11;80.32;90753.97;4958829;28;20022;-91
2021/09/18 08:19:51;;;;;;;12.05;7.60;;;;;;;11.04;75.97;90747.81;4974389;28;20030;-92
2021/09/18 08:22:16;;;;;;;11.55;6.88;;;;;;;11.14;77.43;90748.09;4958993;28;20027;-91
2021/09/18 08:24:42;;;;;;;11.15;7.60;;;;;;;11.37;77.11;90756.09;4958727;28;20042;-92
2021/09/18 08:27:08;;;;;;;11.60;7.55;;;;;;;11.26;77.08;90752.47;4974812;28;20479;-92
2021/09/18 08:29:33;;;;;;;13.43;6.82;;;;;;;11.39;75.85;90759.13;5028152;23;20026;-87
2021/09/18 08:31:58;;;;;;;15.32;7.50;;;;;;;11.49;76.13;90756.03;5013588;28;20040;-89
2021/09/18 08:34:24;;;;;;;13.50;8.00;;;;;;;11.60;78.03;90760.75;4997406;28;20030;-90
2021/09/18 08:36:51;;;;;;;13.00;7.85;;;;;;;11.68;75.98;90757.97;4981278;28;20485;-89
2021/09/18 08:39:16;;;;;;;10.73;7.07;;;;;;;11.73;75.78;90751.72;4997698;28;20175;-89
2021/09/18 08:41:45;;;;;;;14.35;8.27;;;;;;;11.77;74.25;90765.63;5010189;28;20397;-89
2021/09/18 08:44:11;;;;;;;11.93;7.75;;;;;;;11.79;73.11;90767.91;4991091;28;20076;-89
2021/09/18 08:46:36;;;;;;;13.10;7.45;;;;;;;11.82;73.31;90765.38;4975113;28;20038;-89
2021/09/18 08:49:01;;;;;;;11.50;6.88;;;;;;;11.91;73.78;90767.84;4974577;28;20034;-90
2021/09/18 08:51:27;;;;;;;10.85;6.70;;;;;;;11.95;73.16;90761.59;4959012;28;20026;-89
2021/09/18 08:53:52;;;;;;;11.95;6.25;;;;;;;12.02;71.97;90766.22;4958810;28;20556;-89
2021/09/18 08:56:20;;;;;;;10.15;6.20;;;;;;;12.18;71.41;90763.56;4975093;28;20029;-89
2021/09/18 08:58:45;;;;;;;8.85;5.65;;;;;;;12.24;70.11;90770.06;4962299;28;20022;-90
2021/09/18 09:01:12;;;;;;;11.35;5.60;;;;;;;12.15;68.10;90767.59;4960216;28;20509;-90
2021/09/18 09:03:37;;;;;;;9.38;5.85;;;;;;;12.28;69.42;90757.06;4960664;28;20025;-88
2021/09/18 09:06:05;;;;;;;9.68;6.15;;;;;;;12.39;69.25;90774.47;4978227;28;20029;-89
2021/09/18 09:08:31;;;;;;;11.70;5.57;;;;;;;12.50;69.23;90772.06;4994604;28;20036;-87
2021/09/18 09:10:56;;;;;;;7.68;5.45;;;;;;;12.59;70.95;90769.28;4977987;28;20045;-88
2021/09/18 09:13:22;;;;;;;11.07;6.32;;;;;;;12.79;70.23;90768.19;4978735;28;20036;-88
2021/09/18 09:15:50;;;;;;;7.65;5.60;;;;;;;12.87;67.56;90769.84;4977780;28;20045;-88
2021/09/18 09:18:20;;;;;;;8.85;5.57;;;;;;;12.84;67.14;90767.91;4974193;28;20169;-87
2021/09/18 09:20:46;;;;;;;10.55;6.38;;;;;;;12.94;67.85;90763.22;4959573;28;20486;-87
2021/09/18 09:23:19;;;;;;;7.93;5.82;;;;;;;12.90;68.10;90758.69;4974867;28;20053;-88
2021/09/18 09:25:50;;;;;;;8.82;5.28;;;;;;;13.07;66.50;90764.56;4976557;28;20145;-88
2021/09/18 09:28:31;;;;;;;8.90;5.30;;;;;;;13.21;69.33;90767.44;4990367;28;20027;-88
2021/09/18 09:31:24;;;;;;;10.05;5.75;;;;;;;13.21;67.96;90766.69;4974934;28;20434;-88
2021/09/18 09:34:12;;;;;;;9.60;5.57;;;;;;;13.11;65.71;90760.19;4981899;28;20026;-88
2021/09/18 09:36:50;;;;;;;8.45;5.20;;;;;;;13.23;65.96;90765.25;5001498;28;20021;-87
2021/09/18 09:39:20;;;;;;;10.30;5.55;;;;;;;13.35;66.99;90761.72;4985444;28;20095;-88
2021/09/18 09:41:48;;;;;;;6.85;5.25;;;;;;;13.43;66.58;90770.47;5000984;28;20260;-88
2021/09/18 09:44:17;;;;;;;8.88;5.43;;;;;;;13.50;66.16;90768.75;5013410;28;20026;-88
2021/09/18 09:46:43;;;;;;;6.60;4.85;;;;;;;13.62;66.53;90765.94;4981515;28;20079;-89
2021/09/18 09:49:08;;;;;;;6.72;4.97;;;;;;;13.79;66.45;90764.72;4965449;28;20026;-88
2021/09/18 09:51:33;;;;;;;6.82;5.20;;;;;;;14.07;69.29;90750.53;5013505;28;20026;-88
2021/09/18 09:54:19;;;;;;;9.10;5.47;;;;;;;14.14;64.87;90747.28;4965273;28;20038;-88
2021/09/18 09:56:45;;;;;;;8.73;4.82;;;;;;;14.29;67.58;90752.34;4981974;28;20484;-89
2021/09/18 09:59:10;;;;;;;7.78;5.65;;;;;;;14.43;65.81;90756.28;4965569;28;20057;-88
2021/09/18 10:01:36;;;;;;;7.60;5.10;;;;;;;14.30;63.46;90745.22;4965709;28;20033;-88
2021/09/18 10:04:01;;;;;;;8.18;4.63;;;;;;;14.63;66.83;90746.41;4997706;28;20030;-88
2021/09/18 10:06:27;;;;;;;6.40;4.47;;;;;;;14.47;63.19;90749.97;4982492;28;20101;-88
2021/09/18 10:08:52;;;;;;;7.78;4.65;;;;;;;14.48;62.14;90750.72;4969174;28;20486;-87
2021/09/18 10:11:20;;;;;;;6.93;4.30;;;;;;;14.43;62.50;90753.66;4981540;28;20033;-88
2021/09/18 10:13:46;;;;;;;6.97;4.25;;;;;;;14.43;61.94;90746.53;4997268;28;20478;-88
2021/09/18 10:16:11;;;;;;;6.72;4.13;;;;;;;14.41;61.43;90746.13;4980526;28;20036;-88
2021/09/18 10:18:37;;;;;;;5.97;3.78;;;;;;;14.49;62.29;90753.00;4980561;28;20041;-88
2021/09/18 10:23:28;;;;;;;4.88;3.75;;;;;;;14.84;64.01;90741.47;4999397;28;20017;-88
2021/09/18 10:25:55;;;;;;;5.50;3.97;;;;;;;14.93;64.27;90747.16;4991036;28;20048;-89
2021/09/18 10:28:21;;;;;;;4.93;3.38;;;;;;;15.13;59.31;90736.50;4988752;28;20022;-88
2021/09/18 10:30:49;;;;;;;4.15;3.42;;;;;;;14.81;58.14;90737.66;4980995;28;20034;-88
2021/09/18 10:33:36;;;;;;;4.15;3.25;;;;;;;14.84;61.04;90736.22;4980563;28;20026;-88
2021/09/18 10:36:03;;;;;;;5.13;3.75;;;;;;;15.18;63.10;90739.56;5013577;28;20048;-88
2021/09/18 10:38:31;;;;;;;4.47;3.40;;;;;;;15.13;59.93;90733.88;4996740;28;20036;-88
2021/09/18 10:41:20;;;;;;;5.63;4.05;;;;;;;15.28;61.54;90733.66;4980729;28;20033;-88
2021/09/18 10:43:57;;;;;;;6.38;3.65;;;;;;;15.30;58.08;90736.69;4980877;28;20034;-88
2021/09/18 10:46:41;;;;;;;5.18;3.80;;;;;;;15.20;57.40;90732.09;4998888;28;20496;-88
2021/09/18 10:49:26;;;;;;;3.83;2.90;;;;;;;15.49;62.79;90727.84;5005886;28;20040;-88
2021/09/18 10:51:54;;;;;;;3.90;3.30;;;;;;;15.46;57.36;90731.19;5019234;28;20034;-88
2021/09/18 10:54:19;;;;;;;3.90;3.10;;;;;;;15.61;58.68;90734.69;4995948;28;20045;-90
2021/09/18 10:57:04;;;;;;;4.30;2.70;;;;;;;15.76;55.26;90725.13;4974580;28;20063;-89
2021/09/18 10:59:40;;;;;;;3.88;2.78;;;;;;;15.66;57.41;90731.03;4978535;28;20157;-89
2021/09/18 11:02:34;;;;;;;3.85;3.10;;;;;;;15.89;55.85;90728.94;4975759;28;20026;-89
2021/09/18 11:05:31;;;;;;;4.90;3.55;;;;;;;15.78;56.18;90723.59;5026584;28;20029;-89
2021/09/18 11:08:15;;;;;;;4.55;3.20;;;;;;;15.87;57.57;90722.56;5008086;28;20025;-88
2021/09/18 11:10:48;;;;;;;3.90;3.10;;;;;;;15.94;54.65;90720.00;5005469;28;20060;-89
2021/09/18 11:13:14;;;;;;;4.60;2.72;;;;;;;16.08;58.14;90720.09;4989826;28;20822;-89
2021/09/18 11:15:46;;;;;;;5.80;2.80;;;;;;;16.12;55.87;90720.09;5005322;28;20034;-89
2021/09/18 11:18:15;;;;;;;4.13;3.00;;;;;;;16.52;58.48;90721.81;5005679;28;20030;-88
2021/09/18 11:20:40;;;;;;;4.57;2.85;;;;;;;16.61;55.78;90724.13;5015028;28;20026;-89
2021/09/18 11:23:06;;;;;;;4.80;2.85;;;;;;;16.56;54.46;90719.22;4963380;28;20022;-88
2021/09/18 11:25:32;;;;;;;4.60;2.85;;;;;;;16.47;54.45;90727.44;4978879;28;20112;-89
2021/09/18 11:28:07;;;;;;;4.70;2.70;;;;;;;16.77;56.51;90727.22;4995189;28;20041;-88
2021/09/18 11:30:45;;;;;;;3.85;2.70;;;;;;;16.72;54.27;90719.66;4979106;28;20030;-89
2021/09/18 11:33:11;;;;;;;4.22;3.00;;;;;;;16.75;54.97;90718.19;4995233;28;20030;-88
2021/09/18 11:35:37;;;;;;;3.83;2.90;;;;;;;16.80;53.90;90713.34;4979270;28;20029;-88
2021/09/18 11:38:04;;;;;;;3.80;2.60;;;;;;;16.65;53.09;90715.13;4979179;28;20110;-89